Time;durP1;ratioP1;P1;durP2;ratioP2;P2;SDS_P1;SDS_P2;PMS_P1;PMS_P2;Temp;Humidity;BMP_temperature;BMP_pressure;BME280_temperature;BME280_humidity;BME280_pressure;Samples;Min_cycle;Max_cycle;Signal;HPM_P1;HPM_P2
2023/07/11 00:00:15;;;;;;;;;;;;;;;23.22;51.44;98537.41;7371986;19;19923;-68
2023/07/11 00:02:43;;;;;;;;;;;;;;;23.37;49.94;98551.28;7372655;19;20179;-68
2023/07/11 00:05:11;;;;;;;;;;;;;;;23.37;50.34;98550.47;7365294;19;20613;-68
2023/07/11 00:07:37;;;;;;;;;;;;;;;23.27;50.51;98539.44;7375526;19;19949;-68
2023/07/11 00:10:05;;;;;;;;;;;;;;;23.16;49.69;98541.06;7370306;19;19925;-68
2023/07/11 00:12:31;;;;;;;;;;;;;;;22.94;51.52;98538.06;7372297;19;19929;-68
2023/07/11 00:14:58;;;;;;;;;;;;;;;22.76;51.38;98537.09;7370699;19;19919;-68
2023/07/11 00:17:25;;;;;;;;;;;;;;;22.82;51.00;98537.22;7374178;19;20332;-68
2023/07/11 00:19:53;;;;;;;;;;;;;;;22.83;51.47;98525.38;7364789;19;19931;-68
2023/07/11 00:22:20;;;;;;;;;;;;;;;22.56;52.43;98528.47;7369925;19;19934;-68
2023/07/11 00:24:48;;;;;;;;;;;;;;;22.49;52.63;98533.16;7368576;19;19925;-68
2023/07/11 00:27:15;;;;;;;;;;;;;;;22.71;52.83;98528.03;7373616;19;19922;-68
2023/07/11 00:29:41;;;;;;;;;;;;;;;22.69;53.26;98536.34;7375680;19;19922;-68
2023/07/11 00:32:08;;;;;;;;;;;;;;;22.67;53.03;98533.09;7367614;19;19926;-68
2023/07/11 00:34:36;;;;;;;;;;;;;;;22.74;52.96;98528.41;7369892;19;19925;-68
2023/07/11 00:37:03;;;;;;;;;;;;;;;22.72;53.43;98524.28;7367535;19;19915;-69
2023/07/11 00:39:30;;;;;;;;;;;;;;;22.74;53.45;98525.69;7370969;19;20736;-68
2023/07/11 00:41:57;;;;;;;;;;;;;;;22.79;53.14;98522.31;7363227;19;19933;-69
2023/07/11 00:44:24;;;;;;;;;;;;;;;22.75;53.14;98519.28;7372670;19;19927;-69
2023/07/11 00:46:51;;;;;;;;;;;;;;;22.77;53.34;98517.13;7369177;19;19930;-68
2023/07/11 00:49:18;;;;;;;;;;;;;;;22.74;53.58;98514.91;7368676;19;20343;-68
2023/07/11 00:51:50;;;;;;;;;;;;;;;22.78;52.69;98513.41;7370043;19;19922;-69
2023/07/11 00:54:17;;;;;;;;;;;;;;;22.71;53.24;98509.97;7369850;19;19918;-68
2023/07/11 00:56:46;;;;;;;;;;;;;;;22.64;52.93;98509.25;7370863;19;20431;-68
2023/07/11 00:59:14;;;;;;;;;;;;;;;22.45;54.09;98510.38;7375200;19;19923;-68
2023/07/11 01:01:42;;;;;;;;;;;;;;;22.53;53.61;98501.97;7367489;19;19925;-68
2023/07/11 01:04:10;;;;;;;;;;;;;;;22.55;53.50;98502.56;7367413;19;19923;-68
2023/07/11 01:06:37;;;;;;;;;;;;;;;22.54;54.27;98499.03;7366312;19;19918;-69
2023/07/11 01:09:04;;;;;;;;;;;;;;;22.54;53.82;98509.84;7363803;19;19923;-68
2023/07/11 01:11:31;;;;;;;;;;;;;;;22.57;53.91;98500.47;7365952;19;19929;-68
2023/07/11 01:13:58;;;;;;;;;;;;;;;22.55;53.53;98494.47;7364389;19;19922;-68
2023/07/11 01:16:25;;;;;;;;;;;;;;;22.45;54.26;98497.72;7370151;19;19922;-68
2023/07/11 01:18:52;;;;;;;;;;;;;;;22.44;54.41;98504.16;7367762;19;19923;-69
2023/07/11 01:21:19;;;;;;;;;;;;;;;22.49;54.00;98492.72;7369996;19;19919;-68
2023/07/11 01:23:46;;;;;;;;;;;;;;;22.46;53.96;98502.06;7371634;19;19986;-68
2023/07/11 01:26:14;;;;;;;;;;;;;;;22.43;54.05;98494.41;7363313;19;19994;-68
2023/07/11 01:28:41;;;;;;;;;;;;;;;22.37;54.16;98497.22;7368989;19;20212;-69
2023/07/11 01:31:07;;;;;;;;;;;;;;;22.31;54.22;98499.78;7363202;19;19918;-68
2023/07/11 01:33:34;;;;;;;;;;;;;;;22.32;54.45;98503.28;7371019;19;19947;-68
2023/07/11 01:36:02;;;;;;;;;;;;;;;22.18;55.21;98497.25;7368628;19;19919;-68
2023/07/11 01:38:29;;;;;;;;;;;;;;;22.18;54.45;98486.47;7370065;19;19926;-68
2023/07/11 01:40:56;;;;;;;;;;;;;;;22.20;55.09;98479.00;7370594;19;19998;-69
2023/07/11 01:43:22;;;;;;;;;;;;;;;22.24;54.82;98479.34;7378114;19;20443;-68
2023/07/11 01:45:49;;;;;;;;;;;;;;;22.11;54.87;98474.94;7372163;19;19950;-68
2023/07/11 01:48:16;;;;;;;;;;;;;;;22.14;54.07;98479.88;7378417;19;19934;-68
2023/07/11 01:50:43;;;;;;;;;;;;;;;22.12;54.27;98476.59;7371994;19;19927;-68
2023/07/11 01:53:10;;;;;;;;;;;;;;;21.95;54.52;98481.78;7373109;19;19919;-68
2023/07/11 01:55:36;;;;;;;;;;;;;;;21.71;55.33;98480.81;7376779;19;19975;-68
2023/07/11 01:58:04;;;;;;;;;;;;;;;21.60;56.59;98474.31;7371091;19;19919;-68
2023/07/11 02:00:31;;;;;;;;;;;;;;;21.73;55.89;98473.34;7373314;19;19926;-68
2023/07/11 02:02:58;;;;;;;;;;;;;;;21.41;56.63;98468.13;7373363;19;19965;-68
2023/07/11 02:05:25;;;;;;;;;;;;;;;21.20;57.60;98466.63;7379716;19;19919;-68
2023/07/11 02:07:52;;;;;;;;;;;;;;;21.21;57.96;98470.16;7377866;19;19911;-68
2023/07/11 02:10:18;;;;;;;;;;;;;;;21.43;57.55;98471.41;7384196;19;20346;-68
2023/07/11 02:12:45;;;;;;;;;;;;;;;21.55;56.71;98463.41;7383462;19;19918;-67
2023/07/11 02:15:12;;;;;;;;;;;;;;;21.69;56.01;98462.19;7379097;19;19914;-68
2023/07/11 02:17:39;;;;;;;;;;;;;;;21.56;56.40;98461.53;7392271;19;19915;-68
2023/07/11 02:20:07;;;;;;;;;;;;;;;21.48;57.78;98463.50;7369778;19;20253;-68
2023/07/11 02:22:36;;;;;;;;;;;;;;;21.43;57.48;98465.19;7388004;19;19923;-68
2023/07/11 02:25:03;;;;;;;;;;;;;;;21.63;56.06;98464.97;7372123;19;19921;-68
2023/07/11 02:27:30;;;;;;;;;;;;;;;21.59;56.67;98461.06;7376555;19;19934;-68
2023/07/11 02:29:56;;;;;;;;;;;;;;;21.60;57.02;98457.34;7372570;19;19947;-68
2023/07/11 02:32:23;;;;;;;;;;;;;;;21.76;55.72;98461.31;7378115;19;19959;-68
2023/07/11 02:34:50;;;;;;;;;;;;;;;21.47;56.93;98458.31;7374009;19;20252;-68
2023/07/11 02:37:16;;;;;;;;;;;;;;;21.00;58.15;98464.13;7366943;19;19927;-68
2023/07/11 02:39:43;;;;;;;;;;;;;;;21.21;57.37;98462.91;7374685;19;19950;-67
2023/07/11 02:42:10;;;;;;;;;;;;;;;21.07;57.85;98464.09;7370617;19;19919;-68
2023/07/11 02:44:36;;;;;;;;;;;;;;;20.97;58.67;98461.88;7377522;19;19921;-68
2023/07/11 02:47:03;;;;;;;;;;;;;;;21.09;57.49;98453.06;7371140;19;20622;-67
2023/07/11 02:49:30;;;;;;;;;;;;;;;20.89;59.09;98451.41;7375337;19;19938;-68
2023/07/11 02:51:57;;;;;;;;;;;;;;;20.76;58.84;98448.84;7362167;19;19922;-67
2023/07/11 02:54:24;;;;;;;;;;;;;;;20.82;59.04;98442.56;7376918;19;19918;-68
2023/07/11 02:56:51;;;;;;;;;;;;;;;21.05;58.47;98442.78;7379028;19;19911;-67
2023/07/11 02:59:17;;;;;;;;;;;;;;;21.23;57.65;98439.28;7370805;19;20928;-68
2023/07/11 03:01:45;;;;;;;;;;;;;;;20.91;59.39;98449.31;7371550;19;19922;-68
2023/07/11 03:04:11;;;;;;;;;;;;;;;20.97;59.00;98450.31;7367970;19;19919;-68
2023/07/11 03:06:38;;;;;;;;;;;;;;;21.01;58.08;98446.13;7373228;19;19922;-67
2023/07/11 03:09:05;;;;;;;;;;;;;;;20.90;58.30;98450.34;7370067;19;19919;-68
2023/07/11 03:11:31;;;;;;;;;;;;;;;20.92;58.12;98440.19;7374110;19;19974;-68
2023/07/11 03:13:58;;;;;;;;;;;;;;;20.85;58.18;98450.19;7368531;19;20381;-68
2023/07/11 03:16:25;;;;;;;;;;;;;;;20.80;58.85;98439.25;7377506;19;19945;-68
2023/07/11 03:18:52;;;;;;;;;;;;;;;20.61;59.83;98441.09;7373284;19;19986;-69
2023/07/11 03:21:18;;;;;;;;;;;;;;;20.38;60.40;98441.66;7367438;19;19938;-69
2023/07/11 03:23:45;;;;;;;;;;;;;;;20.40;60.31;98434.19;7373233;19;20276;-69
2023/07/11 03:26:12;;;;;;;;;;;;;;;20.44;60.29;98432.72;7366770;19;19927;-69
2023/07/11 03:28:38;;;;;;;;;;;;;;;20.44;60.09;98438.09;7377028;19;19938;-69
2023/07/11 03:31:05;;;;;;;;;;;;;;;20.54;59.75;98438.47;7366309;19;19918;-69
2023/07/11 03:33:32;;;;;;;;;;;;;;;20.78;58.91;98431.44;7373309;19;19947;-69
2023/07/11 03:35:58;;;;;;;;;;;;;;;20.85;58.47;98430.53;7369727;19;19918;-69
2023/07/11 03:38:25;;;;;;;;;;;;;;;20.42;60.10;98434.78;7375873;19;19925;-69
2023/07/11 03:40:52;;;;;;;;;;;;;;;20.42;60.20;98424.03;7370198;19;20335;-69
2023/07/11 03:43:19;;;;;;;;;;;;;;;20.32;60.93;98429.06;7366291;19;19934;-69
2023/07/11 03:45:46;;;;;;;;;;;;;;;20.51;59.80;98422.75;7374821;19;20640;-69
2023/07/11 03:48:16;;;;;;;;;;;;;;;20.50;59.79;98426.44;7372294;19;19925;-69
2023/07/11 03:50:43;;;;;;;;;;;;;;;20.84;58.93;98427.03;7372752;19;19919;-69
2023/07/11 03:53:09;;;;;;;;;;;;;;;20.74;60.37;98430.22;7365667;19;19923;-69
2023/07/11 03:55:36;;;;;;;;;;;;;;;20.88;59.85;98425.56;7375191;19;19938;-69
2023/07/11 03:58:03;;;;;;;;;;;;;;;20.96;59.27;98429.84;7366318;19;19978;-69
2023/07/11 04:00:29;;;;;;;;;;;;;;;21.07;58.83;98414.84;7369298;19;20590;-69
2023/07/11 04:02:56;;;;;;;;;;;;;;;21.16;59.29;98413.50;7372836;19;19947;-69
2023/07/11 04:05:23;;;;;;;;;;;;;;;21.12;57.84;98417.69;7373560;19;19926;-69
2023/07/11 04:07:50;;;;;;;;;;;;;;;21.12;57.91;98413.13;7374284;19;19925;-69
2023/07/11 04:10:16;;;;;;;;;;;;;;;21.10;58.14;98414.41;7363509;19;19926;-68
2023/07/11 04:12:43;;;;;;;;;;;;;;;21.01;57.97;98417.38;7370120;19;19923;-69
2023/07/11 04:15:10;;;;;;;;;;;;;;;20.91;59.01;98419.75;7364001;19;19921;-69
2023/07/11 04:17:37;;;;;;;;;;;;;;;20.67;59.74;98418.72;7372892;19;19970;-69
2023/07/11 04:20:04;;;;;;;;;;;;;;;21.05;59.60;98409.69;7362895;19;20560;-69
2023/07/11 04:22:30;;;;;;;;;;;;;;;21.10;58.36;98404.44;7373477;19;19934;-69
2023/07/11 04:24:57;;;;;;;;;;;;;;;20.95;58.67;98407.47;7374410;19;19922;-69
2023/07/11 04:27:24;;;;;;;;;;;;;;;20.91;58.84;98408.16;7369488;19;19986;-69
2023/07/11 04:29:51;;;;;;;;;;;;;;;21.14;58.32;98404.81;7371731;19;19933;-69
2023/07/11 04:32:18;;;;;;;;;;;;;;;21.17;57.84;98402.53;7355360;19;20586;-69
2023/07/11 04:34:45;;;;;;;;;;;;;;;21.27;57.94;98400.13;7370874;19;19921;-69
2023/07/11 04:37:11;;;;;;;;;;;;;;;21.52;57.56;98406.50;7369733;19;19918;-70
2023/07/11 04:39:39;;;;;;;;;;;;;;;21.50;56.76;98408.59;7369023;19;19914;-70
2023/07/11 04:42:06;;;;;;;;;;;;;;;21.60;57.19;98403.50;7358753;19;20275;-70
2023/07/11 04:44:32;;;;;;;;;;;;;;;21.83;57.68;98402.81;7371171;19;20398;-69
2023/07/11 04:47:00;;;;;;;;;;;;;;;22.03;57.18;98408.72;7362313;19;19927;-70
2023/07/11 04:49:27;;;;;;;;;;;;;;;22.14;55.97;98407.13;7362150;19;19911;-69
2023/07/11 04:51:54;;;;;;;;;;;;;;;22.09;55.02;98407.81;7366221;19;20454;-68
2023/07/11 04:54:20;;;;;;;;;;;;;;;22.00;56.07;98402.97;7366705;19;20378;-68
2023/07/11 04:56:54;;;;;;;;;;;;;;;22.11;56.01;98400.31;7375210;19;19915;-69
2023/07/11 04:59:20;;;;;;;;;;;;;;;22.16;55.48;98406.91;7364763;19;19931;-69
2023/07/11 05:01:47;;;;;;;;;;;;;;;22.20;54.73;98400.03;7372401;19;20351;-68
2023/07/11 05:04:14;;;;;;;;;;;;;;;22.14;56.18;98404.41;7368675;19;19923;-68
2023/07/11 05:06:41;;;;;;;;;;;;;;;22.14;55.78;98390.94;7371889;19;19975;-68
2023/07/11 05:09:08;;;;;;;;;;;;;;;22.37;55.53;98400.19;7369088;19;20275;-68
2023/07/11 05:11:36;;;;;;;;;;;;;;;22.47;55.46;98400.44;7370760;19;19959;-69
2023/07/11 05:14:03;;;;;;;;;;;;;;;22.68;54.96;98394.50;7368571;19;19911;-69
2023/07/11 05:16:31;;;;;;;;;;;;;;;22.74;54.27;98398.13;7377017;19;19923;-68
2023/07/11 05:18:58;;;;;;;;;;;;;;;22.79;54.08;98393.66;7379418;19;20007;-69
2023/07/11 05:21:25;;;;;;;;;;;;;;;23.03;53.75;98392.88;7372595;19;19982;-69
2023/07/11 05:23:52;;;;;;;;;;;;;;;23.14;53.76;98400.13;7380638;19;19929;-69
2023/07/11 05:26:19;;;;;;;;;;;;;;;23.28;52.92;98398.84;7375623;19;19926;-68
2023/07/11 05:28:45;;;;;;;;;;;;;;;23.38;52.80;98382.88;7381780;19;20348;-69
2023/07/11 05:31:12;;;;;;;;;;;;;;;23.51;53.67;98387.16;7376531;19;20347;-71
2023/07/11 05:33:39;;;;;;;;;;;;;;;23.63;52.18;98389.84;7380693;19;19929;-69
2023/07/11 05:36:18;;;;;;;;;;;;;;;23.73;52.76;98378.44;7376868;19;19915;-69
2023/07/11 05:38:45;;;;;;;;;;;;;;;23.83;51.68;98373.25;7375830;19;20709;-69
2023/07/11 05:41:12;;;;;;;;;;;;;;;23.88;51.24;98376.00;7374591;19;19918;-69
2023/07/11 05:43:39;;;;;;;;;;;;;;;23.93;51.15;98378.81;7380658;19;19923;-68
2023/07/11 05:46:06;;;;;;;;;;;;;;;24.04;51.15;98375.25;7377853;19;20371;-68
2023/07/11 05:48:33;;;;;;;;;;;;;;;24.20;49.75;98370.13;7381968;19;19965;-69
2023/07/11 05:51:11;;;;;;;;;;;;;;;24.29;50.70;98368.63;7377487;19;19927;-69
2023/07/11 05:53:37;;;;;;;;;;;;;;;24.39;50.65;98366.09;7379942;19;19918;-68
2023/07/11 05:56:04;;;;;;;;;;;;;;;24.49;50.16;98366.31;7373608;19;19939;-69
2023/07/11 05:58:32;;;;;;;;;;;;;;;24.46;50.23;98366.81;7380387;19;19925;-69
2023/07/11 06:01:00;;;;;;;;;;;;;;;24.78;48.48;98368.91;7374746;19;19922;-69
2023/07/11 06:03:27;;;;;;;;;;;;;;;24.75;49.35;98372.13;7378147;19;19953;-69
2023/07/11 06:05:58;;;;;;;;;;;;;;;24.88;49.03;98374.47;7378574;19;19922;-69
2023/07/11 06:08:24;;;;;;;;;;;;;;;25.06;49.67;98364.41;7377894;19;20645;-69
2023/07/11 06:10:51;;;;;;;;;;;;;;;25.16;49.16;98364.59;7376855;19;19948;-69
2023/07/11 06:13:18;;;;;;;;;;;;;;;25.36;48.17;98359.44;7369981;19;19918;-69
2023/07/11 06:15:44;;;;;;;;;;;;;;;25.43;47.74;98355.72;7383338;19;20320;-69
2023/07/11 06:18:11;;;;;;;;;;;;;;;25.71;46.80;98352.00;7375698;19;20111;-68
2023/07/11 06:20:38;;;;;;;;;;;;;;;25.89;46.11;98350.84;7377005;19;19926;-68
2023/07/11 06:23:04;;;;;;;;;;;;;;;26.00;46.15;98352.59;7378414;19;19925;-69
2023/07/11 06:25:31;;;;;;;;;;;;;;;26.16;45.29;98350.84;7372767;19;21151;-68
2023/07/11 06:27:58;;;;;;;;;;;;;;;26.22;44.37;98352.50;7369557;19;19933;-67
2023/07/11 06:30:24;;;;;;;;;;;;;;;26.26;45.07;98342.78;7371405;19;22293;-66
2023/07/11 06:32:51;;;;;;;;;;;;;;;26.36;44.82;98347.50;7378149;19;20283;-67
2023/07/11 06:35:18;;;;;;;;;;;;;;;26.53;45.23;98344.66;7372306;19;20015;-67
2023/07/11 06:37:45;;;;;;;;;;;;;;;26.75;44.49;98349.94;7377276;19;19919;-67
2023/07/11 06:40:12;;;;;;;;;;;;;;;26.81;43.97;98349.75;7373633;19;19934;-67
2023/07/11 06:42:39;;;;;;;;;;;;;;;26.66;46.68;98345.00;7378421;19;20313;-67
2023/07/11 06:45:06;;;;;;;;;;;;;;;26.42;46.54;98343.72;7376079;19;20011;-68
2023/07/11 06:47:33;;;;;;;;;;;;;;;26.43;46.24;98342.63;7377457;19;19933;-69
2023/07/11 06:50:00;;;;;;;;;;;;;;;26.36;46.60;98345.59;7376214;19;19936;-68
2023/07/11 06:52:26;;;;;;;;;;;;;;;26.64;45.57;98335.50;7372016;19;21427;-69
2023/07/11 06:54:55;;;;;;;;;;;;;;;26.78;43.49;98344.84;7375576;19;20015;-69
2023/07/11 06:57:21;;;;;;;;;;;;;;;27.07;42.80;98334.41;7373402;19;19933;-68
2023/07/11 06:59:48;;;;;;;;;;;;;;;27.27;43.01;98332.88;7374022;19;19923;-69
2023/07/11 07:02:15;;;;;;;;;;;;;;;27.49;41.51;98329.97;7367496;19;19922;-68
2023/07/11 07:04:42;;;;;;;;;;;;;;;27.53;40.48;98329.19;7379179;19;19927;-70
2023/07/11 07:07:09;;;;;;;;;;;;;;;27.74;40.45;98329.25;7374201;19;20252;-70
2023/07/11 07:09:35;;;;;;;;;;;;;;;27.71;40.18;98327.88;7380389;19;19922;-69
2023/07/11 07:12:03;;;;;;;;;;;;;;;28.00;40.31;98325.50;7378556;19;19925;-70
2023/07/11 07:14:30;;;;;;;;;;;;;;;28.24;38.23;98331.22;7376321;19;19926;-69
2023/07/11 07:16:56;;;;;;;;;;;;;;;28.23;38.51;98324.16;7379870;19;19917;-70
2023/07/11 07:19:23;;;;;;;;;;;;;;;28.41;38.49;98325.53;7374066;19;19921;-69
2023/07/11 07:21:50;;;;;;;;;;;;;;;28.53;37.79;98321.72;7376387;19;19918;-69
2023/07/11 07:24:17;;;;;;;;;;;;;;;28.58;37.49;98324.44;7377053;19;20370;-69
2023/07/11 07:26:44;;;;;;;;;;;;;;;28.29;38.77;98324.16;7378644;19;20264;-73
2023/07/11 07:29:10;;;;;;;;;;;;;;;28.66;39.19;98313.81;7377097;19;20822;-70
2023/07/11 07:31:37;;;;;;;;;;;;;;;28.75;39.76;98315.97;7379453;19;19926;-70
2023/07/11 07:34:04;;;;;;;;;;;;;;;28.81;37.83;98302.06;7377901;19;19937;-70
2023/07/11 07:36:30;;;;;;;;;;;;;;;28.82;38.06;98306.41;7368500;19;19915;-70
2023/07/11 07:38:57;;;;;;;;;;;;;;;29.08;37.54;98295.47;7378423;19;19939;-69
2023/07/11 07:41:24;;;;;;;;;;;;;;;29.19;37.78;98298.97;7373918;19;19982;-70
2023/07/11 07:43:51;;;;;;;;;;;;;;;29.14;37.46;98294.34;7379727;19;19997;-69
2023/07/11 07:46:19;;;;;;;;;;;;;;;29.56;37.42;98301.25;7374151;19;20344;-70
2023/07/11 07:48:46;;;;;;;;;;;;;;;29.70;36.82;98299.56;7377816;19;19982;-70
2023/07/11 07:51:17;;;;;;;;;;;;;;;29.66;34.87;98303.94;7367823;19;20348;-69
2023/07/11 07:53:44;;;;;;;;;;;;;;;29.75;36.31;98296.81;7376768;19;19970;-70
2023/07/11 07:56:12;;;;;;;;;;;;;;;30.09;35.88;98287.81;7371574;19;20653;-70
2023/07/11 07:58:39;;;;;;;;;;;;;;;30.21;35.04;98289.38;7378881;19;19935;-69
2023/07/11 08:01:10;;;;;;;;;;;;;;;30.06;34.73;98284.84;7371009;19;19940;-70
2023/07/11 08:03:38;;;;;;;;;;;;;;;30.28;35.74;98285.25;7376950;19;20026;-69
2023/07/11 08:06:05;;;;;;;;;;;;;;;30.39;35.16;98285.97;7377155;19;19927;-70
2023/07/11 08:08:35;;;;;;;;;;;;;;;30.51;34.59;98278.19;7370174;19;19922;-69
2023/07/11 08:11:02;;;;;;;;;;;;;;;30.69;34.69;98278.56;7373354;19;19922;-69
2023/07/11 08:13:29;;;;;;;;;;;;;;;30.56;35.97;98269.94;7376646;19;19952;-69
2023/07/11 08:16:04;;;;;;;;;;;;;;;30.84;34.61;98272.97;7378209;19;19919;-69
2023/07/11 08:18:51;;;;;;;;;;;;;;;30.94;34.54;98266.53;7377648;19;19949;-69
2023/07/11 08:21:18;;;;;;;;;;;;;;;31.08;34.33;98258.47;7371072;19;19978;-69
2023/07/11 08:23:45;;;;;;;;;;;;;;;31.15;34.25;98257.00;7376427;19;19927;-69
2023/07/11 08:26:12;;;;;;;;;;;;;;;31.08;34.68;98253.00;7371649;19;19921;-69
2023/07/11 08:28:41;;;;;;;;;;;;;;;31.31;33.38;98249.44;7374173;19;19933;-69
2023/07/11 08:31:08;;;;;;;;;;;;;;;31.22;33.93;98248.44;7377012;19;19923;-69
2023/07/11 08:33:35;;;;;;;;;;;;;;;31.42;32.92;98248.19;7370361;19;19922;-69
2023/07/11 08:36:02;;;;;;;;;;;;;;;31.58;33.30;98248.78;7377586;19;19933;-69
2023/07/11 08:38:29;;;;;;;;;;;;;;;31.89;33.65;98245.59;7374748;19;19989;-69
2023/07/11 08:40:55;;;;;;;;;;;;;;;32.23;32.98;98239.00;7373282;19;19918;-69
2023/07/11 08:43:24;;;;;;;;;;;;;;;32.22;32.21;98232.72;7375553;19;20018;-70
2023/07/11 08:45:53;;;;;;;;;;;;;;;32.54;31.90;98228.31;7385058;19;20019;-69
2023/07/11 08:48:37;;;;;;;;;;;;;;;32.56;32.44;98226.09;7381034;19;19974;-69
2023/07/11 08:51:05;;;;;;;;;;;;;;;32.53;31.43;98227.53;7388649;19;19914;-69
2023/07/11 08:53:34;;;;;;;;;;;;;;;32.64;32.74;98233.63;7380078;19;19962;-69
2023/07/11 08:56:11;;;;;;;;;;;;;;;32.86;32.88;98221.13;7385207;19;19945;-70
2023/07/11 08:58:38;;;;;;;;;;;;;;;32.68;33.40;98217.41;7382047;19;19919;-69
2023/07/11 09:01:08;;;;;;;;;;;;;;;32.92;32.28;98206.22;7378874;19;19925;-69
2023/07/11 09:03:38;;;;;;;;;;;;;;;32.90;33.01;98212.00;7381946;19;19920;-70
2023/07/11 09:06:06;;;;;;;;;;;;;;;33.10;31.30;98202.56;7384392;19;19939;-70
2023/07/11 09:08:34;;;;;;;;;;;;;;;33.10;32.50;98197.09;7379798;19;19970;-69
2023/07/11 09:11:37;;;;;;;;;;;;;;;33.45;31.74;98194.66;7378922;19;20494;-69
2023/07/11 09:14:17;;;;;;;;;;;;;;;33.52;31.34;98186.81;7376935;19;20385;-70
2023/07/11 09:16:51;;;;;;;;;;;;;;;33.33;30.29;98186.16;7379886;19;19982;-70
2023/07/11 09:19:21;;;;;;;;;;;;;;;33.81;30.82;98185.56;7377358;19;20016;-70
2023/07/11 09:21:47;;;;;;;;;;;;;;;34.04;30.84;98183.59;7381679;19;19925;-70
2023/07/11 09:24:20;;;;;;;;;;;;;;;34.01;32.52;98176.81;7382028;19;19919;-70
2023/07/11 09:26:48;;;;;;;;;;;;;;;33.78;31.07;98172.47;7384726;19;19926;-69
2023/07/11 09:29:15;;;;;;;;;;;;;;;33.76;30.61;98169.25;7375157;19;20450;-70
2023/07/11 09:31:58;;;;;;;;;;;;;;;33.88;32.22;98159.31;7375162;19;19922;-70
2023/07/11 09:34:32;;;;;;;;;;;;;;;34.35;31.65;98156.19;7379953;19;19929;-69
2023/07/11 09:37:00;;;;;;;;;;;;;;;34.52;30.88;98150.75;7380528;19;19927;-69
2023/07/11 09:39:27;;;;;;;;;;;;;;;34.62;31.27;98157.09;7380175;19;19917;-69
2023/07/11 09:41:55;;;;;;;;;;;;;;;34.38;33.35;98144.53;7377207;19;19930;-69
2023/07/11 09:44:21;;;;;;;;;;;;;;;34.73;35.06;98144.66;7377258;19;19918;-69
2023/07/11 09:46:48;;;;;;;;;;;;;;;34.19;37.71;98149.50;7380074;19;19925;-70
2023/07/11 09:49:18;;;;;;;;;;;;;;;33.96;31.49;98152.25;7373429;19;19934;-71
2023/07/11 09:51:50;;;;;;;;;;;;;;;34.07;32.09;98137.19;7376525;19;19943;-69
2023/07/11 09:54:21;;;;;;;;;;;;;;;34.76;31.61;98144.06;7374073;19;20255;-70
2023/07/11 09:56:48;;;;;;;;;;;;;;;34.67;33.65;98143.22;7381317;19;19951;-70
2023/07/11 09:59:15;;;;;;;;;;;;;;;34.77;34.07;98148.41;7376227;19;19922;-70
2023/07/11 10:01:42;;;;;;;;;;;;;;;34.68;31.74;98140.16;7378742;19;20676;-70
2023/07/11 10:04:12;;;;;;;;;;;;;;;34.51;33.21;98142.81;7379420;19;20551;-70
2023/07/11 10:06:44;;;;;;;;;;;;;;;34.66;31.58;98141.59;7372918;19;19910;-70
2023/07/11 10:09:29;;;;;;;;;;;;;;;34.54;31.35;98133.94;7377703;19;19929;-70
2023/07/11 10:12:02;;;;;;;;;;;;;;;34.58;31.29;98131.41;7376656;19;19935;-70
2023/07/11 10:14:32;;;;;;;;;;;;;;;34.50;32.30;98130.22;7374326;19;20362;-71
2023/07/11 10:16:59;;;;;;;;;;;;;;;34.42;32.51;98131.81;7380375;19;19926;-70
2023/07/11 10:19:26;;;;;;;;;;;;;;;34.52;32.09;98123.28;7378830;19;19918;-70
2023/07/11 10:21:53;;;;;;;;;;;;;;;34.61;30.65;98119.78;7370268;19;19915;-71
2023/07/11 10:24:23;;;;;;;;;;;;;;;34.62;31.13;98113.94;7374979;19;19915;-70
2023/07/11 10:26:54;;;;;;;;;;;;;;;34.66;32.30;98112.19;7377402;19;19922;-71
2023/07/11 10:29:21;;;;;;;;;;;;;;;34.81;31.71;98110.94;7374974;19;19926;-70
2023/07/11 10:31:51;;;;;;;;;;;;;;;34.92;31.62;98114.16;7376833;19;19947;-70
2023/07/11 10:34:25;;;;;;;;;;;;;;;35.00;30.32;98107.06;7379204;19;19907;-70
2023/07/11 10:36:52;;;;;;;;;;;;;;;35.21;31.13;98110.81;7380275;19;19915;-70
2023/07/11 10:39:21;;;;;;;;;;;;;;;35.03;30.14;98095.41;7373309;19;20241;-70
2023/07/11 10:42:11;;;;;;;;;;;;;;;35.31;30.13;98102.22;7372256;19;19923;-70
2023/07/11 10:44:42;;;;;;;;;;;;;;;35.04;31.65;98094.28;7373002;19;19918;-70
2023/07/11 10:47:09;;;;;;;;;;;;;;;34.99;31.96;98086.19;7378449;19;20624;-71
2023/07/11 10:49:37;;;;;;;;;;;;;;;34.96;30.92;98082.94;7371446;19;19926;-70
2023/07/11 10:52:21;;;;;;;;;;;;;;;34.84;30.59;98082.00;7375905;19;19923;-70
2023/07/11 10:55:07;;;;;;;;;;;;;;;35.02;32.50;98082.78;7375505;19;19978;-71
2023/07/11 10:57:40;;;;;;;;;;;;;;;35.06;31.34;98070.81;7375561;19;19921;-70
2023/07/11 11:00:29;;;;;;;;;;;;;;;34.50;31.31;98070.59;7378792;19;19918;-71
2023/07/11 11:03:16;;;;;;;;;;;;;;;34.70;30.53;98054.66;7377170;19;20548;-70
2023/07/11 11:06:12;;;;;;;;;;;;;;;34.73;31.30;98057.56;7379916;19;20344;-70
2023/07/11 11:08:45;;;;;;;;;;;;;;;34.85;31.40;98051.41;7371644;19;20368;-70
2023/07/11 11:11:20;;;;;;;;;;;;;;;34.77;32.38;98043.19;7373078;19;19967;-70
2023/07/11 11:14:06;;;;;;;;;;;;;;;34.98;31.74;98038.66;7376303;19;19943;-70
2023/07/11 11:16:52;;;;;;;;;;;;;;;35.14;30.63;98028.78;7373605;19;19933;-71
2023/07/11 11:19:19;;;;;;;;;;;;;;;35.22;30.36;98029.13;7374471;19;20623;-71
2023/07/11 11:22:04;;;;;;;;;;;;;;;35.16;31.06;98033.97;7371451;19;19926;-70
2023/07/11 11:24:33;;;;;;;;;;;;;;;34.85;29.49;98032.19;7378026;19;19998;-70
2023/07/11 11:27:03;;;;;;;;;;;;;;;34.93;30.44;98025.88;7376756;19;20053;-70
2023/07/11 11:29:33;;;;;;;;;;;;;;;35.04;30.01;98020.03;7361285;19;19918;-70
2023/07/11 11:32:06;;;;;;;;;;;;;;;35.23;29.32;98019.72;7375026;19;20361;-70
2023/07/11 11:34:32;;;;;;;;;;;;;;;35.38;29.08;98010.97;7375031;19;19919;-70
2023/07/11 11:36:59;;;;;;;;;;;;;;;35.37;29.72;97999.16;7379257;19;20319;-69
2023/07/11 11:39:28;;;;;;;;;;;;;;;35.27;30.23;98001.44;7374613;19;20259;-71
2023/07/11 11:41:57;;;;;;;;;;;;;;;35.28;29.76;97998.34;7375783;19;19934;-70
2023/07/11 11:44:43;;;;;;;;;;;;;;;35.13;29.94;97996.16;7370532;19;19923;-70
2023/07/11 11:47:12;;;;;;;;;;;;;;;35.20;30.21;97996.44;7370242;19;19925;-70
2023/07/11 11:49:42;;;;;;;;;;;;;;;35.21;30.35;97987.06;7369544;19;19923;-70
2023/07/11 11:52:32;;;;;;;;;;;;;;;35.25;29.37;97987.22;7374003;19;19918;-71
2023/07/11 11:55:36;;;;;;;;;;;;;;;35.24;30.43;97989.16;7381052;19;20763;-70
2023/07/11 11:58:03;;;;;;;;;;;;;;;34.90;31.34;97984.50;7380413;19;20319;-70
2023/07/11 12:00:32;;;;;;;;;;;;;;;35.11;32.15;97976.41;7371331;19;19925;-70
2023/07/11 12:02:59;;;;;;;;;;;;;;;34.87;32.31;97985.97;7374680;19;19923;-70
2023/07/11 12:05:26;;;;;;;;;;;;;;;34.76;31.75;97973.69;7370079;19;20485;-71
2023/07/11 12:08:19;;;;;;;;;;;;;;;34.92;32.71;97974.78;7376099;19;19919;-70
2023/07/11 12:11:07;;;;;;;;;;;;;;;34.26;36.52;97965.88;7372777;19;19923;-70
2023/07/11 12:13:35;;;;;;;;;;;;;;;33.70;35.91;97967.47;7375036;19;20218;-70
2023/07/11 12:16:06;;;;;;;;;;;;;;;33.51;33.56;97970.44;7375451;19;19919;-70
2023/07/11 12:18:41;;;;;;;;;;;;;;;33.80;32.92;97961.72;7366451;19;19918;-70
2023/07/11 12:21:14;;;;;;;;;;;;;;;34.27;34.77;97951.81;7371644;19;19921;-70
2023/07/11 12:23:44;;;;;;;;;;;;;;;34.43;33.46;97941.16;7374134;19;19918;-70
2023/07/11 12:26:22;;;;;;;;;;;;;;;34.71;33.61;97933.44;7368520;19;20320;-69
2023/07/11 12:28:49;;;;;;;;;;;;;;;34.91;31.35;97933.88;7372879;19;20624;-68
2023/07/11 12:31:16;;;;;;;;;;;;;;;35.07;31.70;97931.41;7371796;19;19943;-68
2023/07/11 12:33:43;;;;;;;;;;;;;;;35.07;30.79;97925.91;7373372;19;20441;-70
2023/07/11 12:36:22;;;;;;;;;;;;;;;35.27;30.74;97919.75;7370985;19;19921;-70
2023/07/11 12:38:52;;;;;;;;;;;;;;;35.49;31.18;97909.63;7372075;19;20009;-69
2023/07/11 12:41:25;;;;;;;;;;;;;;;35.59;29.67;97903.78;7371808;19;19933;-70
2023/07/11 12:44:05;;;;;;;;;;;;;;;35.46;31.38;97893.78;7375220;19;19958;-69
2023/07/11 12:46:34;;;;;;;;;;;;;;;35.35;30.81;97896.09;7372748;19;19919;-69
2023/07/11 12:49:03;;;;;;;;;;;;;;;35.48;29.60;97897.03;7374853;19;19943;-69
2023/07/11 12:51:34;;;;;;;;;;;;;;;35.67;33.81;97891.91;7367425;19;19915;-69
2023/07/11 12:54:04;;;;;;;;;;;;;;;35.39;32.63;97888.81;7372825;19;19911;-69
2023/07/11 12:56:30;;;;;;;;;;;;;;;35.66;31.20;97875.75;7370634;19;19925;-70